RJBD(METAR)
07/16 19:00
METAR RJBD 161000Z 15004KT 9999 FEW004 SCT130 BKN/// 24/23 Q1010 RMK
1ST004 4AC130 A2985=
戻る
トップページへ戻る
IMOC Co,.Ltd.